Data for 05/18/2014

Time Sea-Level Adjusted Pressure Absolute Pressure Temperature Relative Humidity Dew Point   
(mb) (inHg) (mb) (inHg) (C) (F) (%) (C) (F)
00:05 1012 29.88 842 24.86 8.9 48 76 4.9 40.8
00:10 1012 29.88 842 24.86 9.2 48.5 76 5.2 41.3
00:15 1012 29.88 842 24.86 9 48.2 77 5.2 41.4
00:20 1012 29.88 842 24.86 8.6 47.5 80 5.4 41.6
00:25 1012 29.88 842 24.86 8.5 47.3 79 5 41
00:30 1012 29.88 842 24.86 8.3 47 77 4.5 40.2
00:35 1012 29.88 842 24.86 8.3 47 78 4.7 40.4
00:40 1012 29.88 842 24.86 8.4 47 77 4.6 40.2
00:45 1013 29.91 842 24.86 8.3 46.9 77 4.6 40.3
00:50 1013 29.91 842 24.86 8.3 46.9 78 4.7 40.4
00:55 1012 29.88 842 24.86 8.4 47.1 78 4.9 40.8
01:00 1012 29.88 842 24.86 8.3 46.9 79 4.9 40.9
01:05 1013 29.91 842 24.86 8.3 46.9 80 5 41
01:10 1013 29.91 842 24.86 8.5 47.3 80 5.2 41.4
01:15 1012 29.88 842 24.86 8.6 47.5 80 5.5 41.8
01:20 1012 29.88 842 24.86 8.5 47.4 80 5.4 41.7
01:25 1012 29.88 841 24.83 8.3 47 81 5.2 41.4
01:30 1012 29.88 841 24.83 8.1 46.5 82 5.1 41.2
01:35 1012 29.88 841 24.83 8.1 46.6 82 5.3 41.5
01:40 1012 29.88 841 24.83 8.4 47.1 82 5.5 41.9
01:45 1012 29.88 841 24.83 8.5 47.4 82 5.7 42.2
01:50 1012 29.88 841 24.83 8.5 47.3 82 5.7 42.3
01:55 1012 29.88 841 24.83 8.5 47.3 83 5.8 42.4
02:00 1012 29.88 841 24.83 8.5 47.3 84 5.9 42.6
02:05 1012 29.88 841 24.83 8.7 47.7 83 6 42.8
02:10 1012 29.88 841 24.83 8.8 47.9 82 6 42.7
02:15 1012 29.88 841 24.83 8.8 47.9 82 6 42.7
02:20 1012 29.88 841 24.83 8.9 47.9 82 6 42.7
02:25 1012 29.88 841 24.83 9 48.1 81 6 42.7
02:30 1012 29.88 841 24.83 8.9 48.1 81 5.9 42.7
02:35 1012 29.88 841 24.83 8.8 47.9 82 5.9 42.6
02:40 1012 29.88 841 24.83 8.8 47.9 81 5.8 42.5
02:45 1012 29.88 841 24.83 8.6 47.6 82 5.8 42.5
02:50 1012 29.88 841 24.83 8.5 47.4 83 5.8 42.5
02:55 1012 29.88 841 24.83 8.5 47.2 83 5.8 42.5
03:00 1012 29.88 841 24.83 8.4 47 84 5.8 42.4
03:05 1012 29.88 841 24.83 8.2 46.8 85 5.8 42.5
03:10 1012 29.88 841 24.83 8.3 46.9 84 5.7 42.2
03:15 1012 29.88 841 24.83 8.2 46.8 81 5.1 41.2
03:20 1011 29.85 841 24.83 8 46.4 81 4.9 40.9
03:25 1011 29.85 841 24.83 7.9 46.1 80 4.7 40.5
03:30 1012 29.88 841 24.83 7.9 46.2 78 4.2 39.6
03:35 1012 29.88 841 24.83 8 46.3 77 4.1 39.4
03:40 1011 29.85 841 24.83 7.9 46.2 78 4.2 39.6
03:45 1011 29.85 841 24.83 7.8 46 78 4.2 39.6
03:50 1011 29.85 840 24.81 7.9 46.1 76 4 39.2
03:55 1011 29.85 840 24.81 7.9 46.2 81 4.9 40.8
04:00 1011 29.85 840 24.81 8.1 46.6 81 5 41
04:05 1011 29.85 840 24.81 8.2 46.8 84 5.6 42.2
04:10 1011 29.85 840 24.81 8.4 47.1 84 5.8 42.5
04:15 1011 29.85 840 24.81 8.4 47.2 84 5.8 42.5
04:20 1011 29.85 840 24.81 8.3 47 83 5.6 42.1
04:25 1011 29.85 840 24.81 8.2 46.8 82 5.4 41.7
04:30 1011 29.85 840 24.81 8.2 46.7 82 5.3 41.6
04:35 1011 29.85 840 24.81 8.2 46.8 82 5.3 41.5
04:40 1011 29.85 840 24.81 8.5 47.2 80 5.3 41.5
04:45 1011 29.85 840 24.81 8.6 47.4 81 5.4 41.8
04:50 1011 29.85 840 24.81 8.6 47.4 80 5.4 41.7
04:55 1011 29.85 840 24.81 8.6 47.4 81 5.4 41.8
05:00 1010 29.83 840 24.81 8.7 47.6 81 5.5 41.9
05:05 1010 29.83 840 24.81 8.6 47.5 81 5.5 41.9
05:10 1011 29.85 840 24.81 8.5 47.3 81 5.4 41.8
05:15 1011 29.85 840 24.81 8.4 47 82 5.5 41.8
05:20 1011 29.85 840 24.81 8.3 47 81 5.2 41.4
05:25 1011 29.85 840 24.81 8.1 46.6 82 5.3 41.5
05:30 1011 29.85 840 24.81 8 46.5 78 4.5 40
05:35 1011 29.85 840 24.81 7.8 46.1 74 3.6 38.4
05:40 1011 29.85 840 24.81 7.7 45.8 75 3.5 38.3
05:45 1011 29.85 840 24.81 7.5 45.5 76 3.6 38.6
05:50 1011 29.85 840 24.81 7.6 45.8 76 3.7 38.7
05:55 1011 29.85 840 24.81 7.6 45.6 76 3.7 38.6
06:00 1010 29.83 840 24.81 7.6 45.6 76 3.6 38.6
06:05 1010 29.83 839 24.78 7.6 45.6 76 3.7 38.6
06:10 1010 29.83 840 24.81 8 46.4 75 3.9 39.1
06:15 1011 29.85 840 24.81 8.4 47 73 3.8 38.9
06:20 1011 29.85 840 24.81 8.5 47.3 74 4.1 39.3
06:25 1011 29.85 840 24.81 8.6 47.4 74 4.1 39.4
06:30 1011 29.85 840 24.81 8.6 47.4 74 4.1 39.5
06:35 1011 29.85 840 24.81 8.7 47.7 75 4.6 40.2
06:40 1011 29.85 840 24.81 8.9 47.9 74 4.5 40.1
06:45 1010 29.83 840 24.81 8.8 47.9 75 4.7 40.4
06:50 1010 29.83 840 24.81 8.8 47.8 76 4.9 40.8
06:55 1010 29.83 840 24.81 8.9 48 76 4.9 40.7
07:00 1010 29.83 839 24.78 8.9 48.1 77 5.2 41.3
07:05 1010 29.83 839 24.78 9.2 48.6 78 5.5 41.9
07:10 1010 29.83 839 24.78 9.7 49.5 76 5.8 42.4
07:15 1010 29.83 839 24.78 10.1 50.1 76 6 42.8
07:20 1010 29.83 839 24.78 10 50 77 6.3 43.3
07:25 1010 29.83 839 24.78 10.1 50.1 78 6.4 43.5
07:30 1010 29.83 839 24.78 10.3 50.5 76 6.2 43.2
07:35 1010 29.83 839 24.78 10.4 50.8 75 6.3 43.3
07:40 1010 29.83 839 24.78 10.3 50.5 75 6 42.9
07:45 1010 29.83 839 24.78 10.2 50.4 76 6.2 43.1
07:50 1010 29.83 839 24.78 10.2 50.3 76 6.1 43.1
07:55 1010 29.83 839 24.78 10.1 50.3 77 6.3 43.3
08:00 1010 29.83 839 24.78 10.2 50.3 76 6.2 43.1
08:05 1010 29.83 839 24.78 10.1 50.1 77 6.2 43.1
08:10 1010 29.83 839 24.78 10.1 50.2 75 5.9 42.7
08:15 1010 29.83 839 24.78 10.4 50.8 73 5.8 42.5
08:20 1010 29.83 839 24.78 10.7 51.3 72 5.9 42.6
08:25 1010 29.83 839 24.78 10.9 51.7 78 7.2 45
08:30 1010 29.83 839 24.78 10.2 50.4 82 7.3 45.2
08:35 1010 29.83 839 24.78 9.8 49.6 83 7 44.6
08:40 1010 29.83 839 24.78 9.5 49.1 84 7 44.6
08:45 1010 29.83 839 24.78 9.4 48.9 84 6.9 44.4
08:50 1010 29.83 839 24.78 9.4 48.9 83 6.7 44
08:55 1010 29.83 839 24.78 9.5 49 83 6.8 44.2
09:00 1010 29.83 839 24.78 9.7 49.5 82 6.7 44.1
09:05 1010 29.83 840 24.81 10 50.1 81 6.9 44.4
09:10 1010 29.83 839 24.78 10.1 50.2 81 7.1 44.8
09:15 1010 29.83 839 24.78 10.3 50.6 81 7.1 44.8
09:20 1010 29.83 839 24.78 10.5 50.9 79 7 44.7
09:25 1010 29.83 839 24.78 10.6 51 79 7.2 44.9
09:30 1010 29.83 839 24.78 11 51.9 77 7.2 44.9
09:35 1010 29.83 839 24.78 11.2 52.2 75 7 44.6
09:40 1010 29.83 839 24.78 11.4 52.5 75 7 44.7
09:45 1010 29.83 839 24.78 11.5 52.7 75 7.2 45
09:50 1010 29.83 839 24.78 11.2 52.2 75 7 44.6
09:55 1010 29.83 839 24.78 11.2 52.1 76 7.1 44.9
10:00 1010 29.83 839 24.78 11.4 52.6 74 7.1 44.7
10:05 1010 29.83 839 24.78 11.5 52.7 74 7 44.6
10:10 1010 29.83 839 24.78 11.7 53 72 6.9 44.5
10:15 1010 29.83 839 24.78 11.6 52.9 72 6.8 44.3
10:20 1010 29.83 839 24.78 11.5 52.7 73 6.9 44.4
10:25 1010 29.83 839 24.78 11.5 52.6 75 7.2 44.9
10:30 1010 29.83 839 24.78 11.3 52.4 75 7.1 44.9
10:35 1010 29.83 839 24.78 11.4 52.4 79 7.8 46
10:40 1010 29.83 839 24.78 11.8 53.2 75 7.6 45.6
10:45 1009 29.8 839 24.78 12 53.5 71 7 44.6
10:50 1009 29.8 839 24.78 12.3 54.1 68 6.6 43.8
10:55 1009 29.8 838 24.75 12.3 54.1 62 5.3 41.5
11:00 1009 29.8 839 24.78 12.5 54.6 61 5.4 41.7
11:05 1009 29.8 838 24.75 12.7 54.8 56 4.1 39.3
11:10 1009 29.8 838 24.75 12.9 55.2 55 4.2 39.5
11:15 1009 29.8 838 24.75 13.7 56.6 51 3.8 38.9
11:20 1009 29.8 838 24.75 14 57.3 50 3.7 38.7
11:25 1009 29.8 838 24.75 14.6 58.2 49 4.2 39.5
11:30 1009 29.8 838 24.75 14.4 57.8 50 4 39.3
11:35 1009 29.8 838 24.75 14.1 57.3 49 3.7 38.7
11:40 1009 29.8 838 24.75 13.8 56.8 50 3.6 38.5
11:45 1008 29.77 838 24.75 13.9 57 47 2.8 37.1
11:50 1008 29.77 837 24.72 14 57.2 49 3.6 38.4
11:55 1008 29.77 837 24.72 14 57.2 48 3.3 37.9
12:00 1008 29.77 837 24.72 13.6 56.4 49 3.2 37.8
12:05 1008 29.77 837 24.72 13.2 55.8 50 3 37.4
12:10 1008 29.77 837 24.72 13.1 55.6 51 3.2 37.7
12:15 1008 29.77 837 24.72 13.2 55.8 51 3.3 38
12:20 1008 29.77 837 24.72 13.2 55.8 52 3.6 38.5
12:25 1007 29.74 837 24.72 13.3 55.9 51 3.4 38.1
12:30 1007 29.74 837 24.72 13 55.4 52 3.4 38.1
12:35 1007 29.74 837 24.72 13 55.4 51 3 37.5
12:40 1008 29.77 837 24.72 12.9 55.2 50 2.8 37.1
12:45 1008 29.77 837 24.72 12.8 55 51 2.9 37.1
12:50 1008 29.77 837 24.72 12.8 55.1 50 2.7 36.9
12:55 1008 29.77 837 24.72 13.1 55.6 49 2.7 36.8
13:00 1007 29.74 837 24.72 12.8 55.1 51 3 37.3
13:05 1007 29.74 836 24.69 12.4 54.3 52 2.8 37
13:10 1007 29.74 836 24.69 12.3 54.1 52 2.8 37.1
13:15 1007 29.74 837 24.72 12.2 54 53 2.9 37.2
13:20 1007 29.74 837 24.72 12.3 54.1 54 3.2 37.7
13:25 1007 29.74 836 24.69 11.7 53 60 4.3 39.8
13:30 1007 29.74 837 24.72 10.7 51.2 62 3.8 38.9
13:35 1007 29.74 837 24.72 10.5 50.8 63 3.8 38.9
13:40 1007 29.74 836 24.69 10.4 50.6 65 4.1 39.4
13:45 1008 29.77 837 24.72 10.4 50.6 63 3.6 38.4
13:50 1008 29.77 837 24.72 10.6 51.1 66 4.5 40.1
13:55 1009 29.8 838 24.75 10.5 50.8 72 5.7 42.3
14:00 1009 29.8 838 24.75 10 50 71 4.9 40.9
14:05 1010 29.83 839 24.78 9.4 48.8 80 6.1 43
14:10 1010 29.83 839 24.78 7.3 45.1 88 5.5 41.9
14:15 1010 29.83 840 24.81 6.6 43.9 91 5.3 41.5
14:20 1010 29.83 840 24.81 6.5 43.8 92 5.3 41.6
14:25 1011 29.85 840 24.81 6.6 43.9 92 5.4 41.7
14:30 1010 29.83 840 24.81 6.6 43.8 91 5.2 41.4
14:35 1010 29.83 839 24.78 6.3 43.4 91 5 41
14:40 1010 29.83 839 24.78 6.3 43.4 92 5.1 41.2
14:45 1010 29.83 839 24.78 6.3 43.4 92 5.1 41.2
14:50 1010 29.83 839 24.78 6.4 43.6 92 5.3 41.5
14:55 1010 29.83 839 24.78 6.4 43.5 92 5.1 41.2
15:00 1010 29.83 839 24.78 6.6 43.8 92 5.3 41.6
15:05 1010 29.83 840 24.81 6.7 44.1 91 5.4 41.7
15:10 1010 29.83 840 24.81 6.7 44 91 5.3 41.5
15:15 1010 29.83 840 24.81 6.7 44 90 5.2 41.4
15:20 1011 29.85 840 24.81 6.7 44 90 5.1 41.3
15:25 1011 29.85 840 24.81 6.7 44.1 90 5.2 41.4
15:30 1010 29.83 840 24.81 6.9 44.4 89 5.3 41.5
15:35 1010 29.83 840 24.81 7 44.5 90 5.5 41.8
15:40 1010 29.83 840 24.81 7 44.6 89 5.4 41.7
15:45 1011 29.85 840 24.81 7.2 44.9 87 5.1 41.2
15:50 1011 29.85 840 24.81 7.2 45 87 5.2 41.3
15:55 1011 29.85 840 24.81 7.2 44.9 87 5.1 41.2
16:00 1011 29.85 840 24.81 7.1 44.9 85 4.8 40.6
16:05 1011 29.85 840 24.81 7.1 44.7 87 5.1 41.2
16:10 1011 29.85 840 24.81 7 44.6 86 4.9 40.7
16:15 1011 29.85 840 24.81 6.9 44.5 87 4.9 40.8
16:20 1011 29.85 840 24.81 7.1 44.8 87 5.1 41.1
16:25 1011 29.85 840 24.81 7.1 44.9 88 5.3 41.5
16:30 1011 29.85 840 24.81 7.2 45 88 5.4 41.7
16:35 1011 29.85 841 24.83 7.3 45.1 87 5.3 41.5
16:40 1011 29.85 841 24.83 7.2 45 86 5 40.9
16:45 1011 29.85 840 24.81 7.1 44.7 85 4.7 40.5
16:50 1011 29.85 840 24.81 7.1 44.8 85 4.7 40.5
16:55 1011 29.85 840 24.81 7.2 44.9 83 4.4 39.9
17:00 1011 29.85 840 24.81 7.2 44.9 84 4.6 40.3
17:05 1011 29.85 840 24.81 7.4 45.3 81 4.3 39.8
17:10 1011 29.85 840 24.81 7.6 45.7 78 3.9 39.1
17:15 1011 29.85 840 24.81 7.8 46 77 3.9 39.1
17:20 1011 29.85 840 24.81 7.9 46.2 78 4.3 39.7
17:25 1010 29.83 840 24.81 7.8 46.1 78 4.3 39.7
17:30 1010 29.83 839 24.78 7.8 46.1 77 4.1 39.4
17:35 1010 29.83 839 24.78 7.9 46.2 74 3.6 38.5
17:40 1010 29.83 839 24.78 8.2 46.7 73 3.6 38.5
17:45 1010 29.83 839 24.78 8.5 47.2 69 3.2 37.8
17:50 1010 29.83 839 24.78 8.6 47.5 71 3.6 38.5
17:55 1010 29.83 839 24.78 9 48.1 71 3.9 39.1
18:00 1010 29.83 840 24.81 9 48.2 71 4.1 39.3
18:05 1010 29.83 840 24.81 9 48.1 71 4 39.1
18:10 1011 29.85 840 24.81 9 48.3 70 3.9 39.1
18:15 1011 29.85 840 24.81 9.1 48.3 72 4.2 39.6
18:20 1011 29.85 840 24.81 9.1 48.5 75 5 40.9
18:25 1011 29.85 840 24.81 9 48.2 78 5.3 41.5
18:30 1010 29.83 840 24.81 8.8 47.9 77 5 41.1
18:35 1010 29.83 840 24.81 8.7 47.7 78 5.2 41.3
18:40 1010 29.83 840 24.81 8.7 47.6 80 5.3 41.6
18:45 1011 29.85 840 24.81 8.6 47.5 80 5.3 41.6
18:50 1011 29.85 840 24.81 8.6 47.4 79 5.2 41.3
18:55 1011 29.85 840 24.81 8.6 47.5 78 5 40.9
19:00 1011 29.85 840 24.81 8.7 47.6 78 5.1 41.1
19:05 1011 29.85 840 24.81 8.9 48.1 76 5 40.9
19:10 1011 29.85 840 24.81 9.2 48.5 75 4.9 40.9
19:15 1011 29.85 840 24.81 9.2 48.5 75 5 41.1
19:20 1011 29.85 840 24.81 9.1 48.3 74 4.8 40.6
19:25 1011 29.85 840 24.81 9 48.1 73 4.5 40.1
19:30 1011 29.85 840 24.81 8.9 48 75 4.7 40.4
19:35 1011 29.85 840 24.81 8.8 47.8 75 4.6 40.2
19:40 1011 29.85 840 24.81 8.6 47.5 77 4.8 40.6
19:45 1011 29.85 840 24.81 8.4 47.1 77 4.6 40.2
19:50 1011 29.85 840 24.81 8.3 46.9 77 4.6 40.3
19:55 1011 29.85 840 24.81 8.2 46.8 78 4.6 40.2
20:00 1011 29.85 840 24.81 8.1 46.5 78 4.5 40.1
20:05 1011 29.85 840 24.81 7.9 46.2 80 4.7 40.5
20:10 1011 29.85 840 24.81 7.7 45.9 82 4.8 40.6
20:15 1011 29.85 840 24.81 7.6 45.7 82 4.6 40.4
20:20 1011 29.85 840 24.81 7.5 45.6 82 4.7 40.4
20:25 1011 29.85 840 24.81 7.4 45.4 83 4.8 40.6
20:30 1011 29.85 840 24.81 7.4 45.3 84 4.9 40.8
20:35 1011 29.85 840 24.81 7.3 45.2 84 4.9 40.7
20:40 1011 29.85 840 24.81 7.1 44.7 85 4.7 40.5
20:45 1011 29.85 840 24.81 6.9 44.4 85 4.5 40.1
20:50 1011 29.85 840 24.81 6.7 44.1 85 4.4 40
20:55 1011 29.85 840 24.81 6.6 43.9 84 4.1 39.4
21:00 1011 29.85 840 24.81 6.6 43.9 84 4.1 39.3
21:05 1011 29.85 840 24.81 6.6 43.9 84 4.1 39.3
21:10 1011 29.85 841 24.83 6.7 44 84 4.2 39.5
21:15 1012 29.88 841 24.83 6.7 44.1 82 3.9 39
21:20 1012 29.88 841 24.83 7 44.5 78 3.5 38.2
21:25 1012 29.88 841 24.83 6.9 44.5 80 3.6 38.5
21:30 1012 29.88 841 24.83 6.7 44 79 3.3 38
21:35 1012 29.88 841 24.83 6.5 43.6 81 3.4 38.2
21:40 1012 29.88 841 24.83 6.2 43.2 82 3.4 38
21:45 1012 29.88 841 24.83 5.8 42.5 84 3.4 38.1
21:50 1012 29.88 841 24.83 5.6 42.1 86 3.5 38.3
21:55 1012 29.88 841 24.83 5.5 41.8 88 3.6 38.4
22:00 1012 29.88 841 24.83 5.4 41.7 88 3.7 38.6
22:05 1012 29.88 841 24.83 5.4 41.7 87 3.4 38.1
22:10 1012 29.88 841 24.83 5.6 42 84 3.1 37.6
22:15 1012 29.88 841 24.83 5.7 42.3 83 3 37.4
22:20 1012 29.88 841 24.83 5.8 42.4 83 3.1 37.5
22:25 1012 29.88 841 24.83 5.9 42.6 82 3 37.4
22:30 1012 29.88 841 24.83 5.9 42.5 82 3 37.4
22:35 1012 29.88 841 24.83 5.9 42.5 81 2.9 37.2
22:40 1012 29.88 841 24.83 5.8 42.5 81 2.8 37
22:45 1012 29.88 841 24.83 5.9 42.6 79 2.6 36.7
22:50 1012 29.88 841 24.83 5.9 42.6 79 2.6 36.6
22:55 1012 29.88 841 24.83 6 42.7 77 2.2 36
23:00 1012 29.88 841 24.83 6.2 43.2 76 2.4 36.2
23:05 1012 29.88 841 24.83 6.1 43.1 79 2.8 37
23:10 1012 29.88 841 24.83 5.8 42.5 80 2.7 36.8
23:15 1012 29.88 841 24.83 5.6 42.1 81 2.7 36.8
23:20 1012 29.88 841 24.83 5.4 41.8 82 2.6 36.7
23:25 1012 29.88 841 24.83 5.2 41.4 84 2.7 36.9
23:30 1012 29.88 841 24.83 4.9 40.8 85 2.5 36.6
23:35 1012 29.88 841 24.83 5 40.9 84 2.5 36.5
23:40 1012 29.88 841 24.83 5 41 83 2.4 36.4
23:45 1012 29.88 841 24.83 5.1 41.2 83 2.4 36.4
23:50 1012 29.88 841 24.83 5.1 41.2 83 2.5 36.4
23:55 1012 29.88 841 24.83 5 41.1 83 2.3 36.2
24:00 1012 29.88 841 24.83 4.8 40.7 85 2.5 36.6